Time;durP1;ratioP1;P1;durP2;ratioP2;P2;SDS_P1;SDS_P2;PMS_P1;PMS_P2;Temp;Humidity;BMP_temperature;BMP_pressure;BME280_temperature;BME280_humidity;BME280_pressure;Samples;Min_cycle;Max_cycle;Signal;HPM_P1;HPM_P2
2021/12/20 00:02:18;;;;;;;1.67;1.58;;;3.70;99.90;;;;;;5073697;28;20041;-67
2021/12/20 00:04:46;;;;;;;0.63;0.63;;;3.70;99.90;;;;;;5073559;28;20051;-68
2021/12/20 00:07:12;;;;;;;0.20;0.20;;;3.60;99.90;;;;;;5073337;28;20048;-68
2021/12/20 00:09:38;;;;;;;0.10;0.10;;;3.70;99.90;;;;;;5073233;28;20086;-68
2021/12/20 00:12:04;;;;;;;1.95;1.85;;;3.60;99.90;;;;;;5073448;28;20043;-68
2021/12/20 00:14:30;;;;;;;1.25;1.05;;;3.60;99.90;;;;;;5071933;28;20028;-69
2021/12/20 00:16:56;;;;;;;2.33;2.15;;;3.60;99.90;;;;;;5074749;28;20031;-68
2021/12/20 00:19:23;;;;;;;1.67;1.58;;;3.60;99.90;;;;;;5093392;28;20072;-68
2021/12/20 00:21:49;;;;;;;1.40;1.13;;;3.60;99.90;;;;;;5093561;28;20060;-68
2021/12/20 00:24:15;;;;;;;0.70;0.70;;;3.60;99.90;;;;;;5093428;28;20098;-69
2021/12/20 00:26:40;;;;;;;1.52;1.42;;;3.60;99.90;;;;;;5093196;28;20032;-69
2021/12/20 00:29:06;;;;;;;4.35;4.00;;;3.60;99.90;;;;;;5093347;28;20036;-68
2021/12/20 00:31:32;;;;;;;1.48;1.38;;;3.60;99.90;;;;;;5093291;28;20024;-69
2021/12/20 00:33:58;;;;;;;0.55;0.55;;;3.60;99.90;;;;;;5092144;28;20036;-69
2021/12/20 00:36:26;;;;;;;0.20;0.20;;;3.50;99.90;;;;;;5092210;28;20039;-68
2021/12/20 00:41:36;;;;;;;1.50;1.40;;;3.60;99.90;;;;;;5092332;28;20032;-69
2021/12/20 00:44:03;;;;;;;1.50;1.35;;;3.50;99.90;;;;;;5093130;28;20047;-68
2021/12/20 00:46:29;;;;;;;0.25;0.25;;;3.50;99.90;;;;;;5091562;28;20047;-68
2021/12/20 00:48:54;;;;;;;2.28;2.17;;;3.50;99.90;;;;;;5072548;28;20032;-69
2021/12/20 00:51:20;;;;;;;1.83;1.73;;;3.50;99.90;;;;;;5072751;28;20033;-68
2021/12/20 00:53:46;;;;;;;6.85;5.50;;;3.50;99.90;;;;;;5071225;28;20036;-69
2021/12/20 00:56:12;;;;;;;0.35;0.35;;;3.40;99.90;;;;;;5072846;28;20063;-69
2021/12/20 00:58:38;;;;;;;1.25;1.17;;;3.50;99.90;;;;;;5072424;28;20052;-68
2021/12/20 01:01:05;;;;;;;9.02;3.30;;;3.40;99.90;;;;;;5072787;28;20063;-68
2021/12/20 01:03:31;;;;;;;2.20;1.95;;;3.40;99.90;;;;;;5071068;28;20097;-68
2021/12/20 01:06:01;;;;;;;0.20;0.20;;;3.40;99.90;;;;;;5072420;28;20029;-69
2021/12/20 01:08:32;;;;;;;1.50;1.43;;;3.40;99.90;;;;;;5071687;28;20041;-68
2021/12/20 01:10:57;;;;;;;0.32;0.32;;;3.40;99.90;;;;;;5072278;28;20310;-68
2021/12/20 01:13:28;;;;;;;16.55;1.65;;;3.50;99.90;;;;;;5071209;28;20496;-68
2021/12/20 01:15:57;;;;;;;5.20;1.98;;;3.40;99.90;;;;;;5072295;28;20029;-68
2021/12/20 01:18:23;;;;;;;1.05;1.02;;;3.40;99.90;;;;;;5086962;28;20035;-67
2021/12/20 01:20:50;;;;;;;0.85;0.85;;;3.50;99.90;;;;;;5091184;28;20557;-69
2021/12/20 01:23:17;;;;;;;2.10;1.98;;;3.40;99.90;;;;;;5091264;28;20073;-69
2021/12/20 01:25:44;;;;;;;1.05;1.00;;;3.40;99.90;;;;;;5092305;28;20031;-68
2021/12/20 01:28:11;;;;;;;0.73;0.73;;;3.40;99.90;;;;;;5091001;28;20090;-68
2021/12/20 01:30:39;;;;;;;1.38;1.30;;;3.40;99.90;;;;;;5092546;28;20028;-68
2021/12/20 01:33:12;;;;;;;0.10;0.10;;;3.40;99.90;;;;;;5090957;28;20073;-68
2021/12/20 01:35:38;;;;;;;0.57;0.57;;;3.40;99.90;;;;;;5090954;28;20098;-68
2021/12/20 01:38:05;;;;;;;2.28;1.88;;;3.40;99.90;;;;;;5091275;28;20055;-69
2021/12/20 01:40:32;;;;;;;0.13;0.13;;;3.40;99.90;;;;;;5090880;28;20388;-68
2021/12/20 01:42:58;;;;;;;0.22;0.22;;;3.40;99.90;;;;;;5092224;28;20032;-68
2021/12/20 01:45:27;;;;;;;5.05;2.40;;;3.40;99.90;;;;;;5091890;28;20107;-68
2021/12/20 01:48:07;;;;;;;0.28;0.28;;;3.40;99.90;;;;;;5079904;28;20033;-69
2021/12/20 01:50:41;;;;;;;0.15;0.15;;;3.50;99.90;;;;;;5087426;28;20035;-69
2021/12/20 01:53:08;;;;;;;5.25;2.17;;;3.40;99.90;;;;;;5072181;28;20028;-68
2021/12/20 01:55:35;;;;;;;0.98;0.98;;;3.40;99.90;;;;;;5071699;28;20033;-68
2021/12/20 01:58:00;;;;;;;1.00;1.00;;;3.40;99.90;;;;;;5071906;28;20040;-69
2021/12/20 02:00:29;;;;;;;1.88;1.75;;;3.40;99.90;;;;;;5071740;28;20033;-69
2021/12/20 02:03:02;;;;;;;1.23;1.17;;;3.40;99.90;;;;;;5071646;28;20025;-68
2021/12/20 02:08:13;;;;;;;1.05;1.05;;;3.40;99.90;;;;;;5070477;28;20029;-68
2021/12/20 02:10:39;;;;;;;0.10;0.10;;;3.40;99.90;;;;;;5070508;28;20052;-69
2021/12/20 02:13:06;;;;;;;1.23;1.13;;;3.40;99.90;;;;;;5071778;28;20101;-68
2021/12/20 02:15:32;;;;;;;1.17;1.10;;;3.40;99.90;;;;;;5070698;28;20040;-69
2021/12/20 02:17:57;;;;;;;1.77;1.67;;;3.40;99.90;;;;;;5081859;28;20036;-68
2021/12/20 02:20:30;;;;;;;1.10;1.08;;;3.40;99.90;;;;;;5094900;28;20024;-68
2021/12/20 02:22:57;;;;;;;0.10;0.10;;;3.30;99.90;;;;;;5095992;28;20028;-68
2021/12/20 02:25:29;;;;;;;6.45;5.00;;;3.40;99.90;;;;;;5094791;28;20028;-68
2021/12/20 02:27:56;;;;;;;3.35;1.83;;;3.40;99.90;;;;;;5094607;28;20036;-68
2021/12/20 02:38:40;;;;;;;3.85;2.20;;;3.40;99.90;;;;;;5022775;28;20049;-67
2021/12/20 02:41:16;;;;;;;0.60;0.60;;;3.40;99.90;;;;;;5095627;28;20036;-68
2021/12/20 02:43:54;;;;;;;1.88;1.38;;;3.40;99.90;;;;;;5094495;28;20123;-67
2021/12/20 02:48:56;;;;;;;1.17;1.17;;;3.40;99.90;;;;;;5074427;28;20040;-68
2021/12/20 02:51:26;;;;;;;0.28;0.28;;;3.40;99.90;;;;;;5073811;28;20035;-67
2021/12/20 02:53:53;;;;;;;5.50;3.20;;;3.40;99.90;;;;;;5073602;28;20412;-68
2021/12/20 02:56:19;;;;;;;1.13;1.05;;;3.40;99.90;;;;;;5075127;28;20044;-67
2021/12/20 02:58:45;;;;;;;0.85;0.85;;;3.40;99.90;;;;;;5073731;28;20040;-68
2021/12/20 03:01:14;;;;;;;1.20;1.15;;;3.40;99.90;;;;;;5075051;28;20493;-68
2021/12/20 03:03:40;;;;;;;11.30;2.90;;;3.30;99.90;;;;;;5073474;28;20040;-67
2021/12/20 03:06:23;;;;;;;1.58;1.20;;;3.40;99.90;;;;;;5074834;28;20056;-68
2021/12/20 03:08:51;;;;;;;0.45;0.45;;;3.40;99.90;;;;;;5074485;28;20127;-68
2021/12/20 03:11:19;;;;;;;1.55;1.45;;;3.40;99.90;;;;;;5073384;28;20555;-68
2021/12/20 03:13:49;;;;;;;0.68;0.68;;;3.40;99.90;;;;;;5074590;28;20429;-68
2021/12/20 03:16:15;;;;;;;1.05;1.05;;;3.40;99.90;;;;;;5075055;28;20388;-67
2021/12/20 03:18:41;;;;;;;0.65;0.47;;;3.40;99.90;;;;;;5091731;28;20032;-68
2021/12/20 03:21:07;;;;;;;0.45;0.45;;;3.40;99.90;;;;;;5094679;28;20051;-68
2021/12/20 03:23:32;;;;;;;2.45;2.35;;;3.40;99.90;;;;;;5082688;28;20082;-67
2021/12/20 03:25:58;;;;;;;1.73;1.63;;;3.50;99.90;;;;;;5074235;28;20036;-68
2021/12/20 03:28:24;;;;;;;1.40;1.30;;;3.50;99.90;;;;;;5074515;28;20116;-67
2021/12/20 03:30:50;;;;;;;2.08;1.23;;;3.50;99.90;;;;;;5073568;28;20082;-68
2021/12/20 03:33:16;;;;;;;3.22;2.13;;;3.50;99.90;;;;;;5073963;28;20039;-67
2021/12/20 03:35:42;;;;;;;4.25;0.98;;;3.50;99.90;;;;;;5073288;28;20377;-67
2021/12/20 03:38:09;;;;;;;2.92;1.80;;;3.40;99.90;;;;;;5074116;28;20032;-67
2021/12/20 03:40:37;;;;;;;3.83;2.28;;;3.40;99.90;;;;;;5072757;28;20782;-68
2021/12/20 03:43:05;;;;;;;1.17;0.68;;;3.40;99.90;;;;;;5074139;28;20041;-68
2021/12/20 03:45:31;;;;;;;2.63;2.10;;;3.40;99.90;;;;;;5072610;28;20400;-67
2021/12/20 03:47:57;;;;;;;0.65;0.65;;;3.50;99.90;;;;;;5072734;28;20039;-68
2021/12/20 03:50:24;;;;;;;0.57;0.57;;;3.50;99.90;;;;;;5074019;28;20381;-68
2021/12/20 03:52:50;;;;;;;1.80;1.70;;;3.50;99.90;;;;;;5077537;28;20036;-67
2021/12/20 03:55:16;;;;;;;0.85;0.85;;;3.50;99.90;;;;;;5094113;28;20032;-68
2021/12/20 03:57:42;;;;;;;2.05;1.95;;;3.40;99.90;;;;;;5092664;28;20032;-68
2021/12/20 04:00:12;;;;;;;4.38;1.50;;;3.40;99.90;;;;;;5092706;28;20552;-68
2021/12/20 04:02:42;;;;;;;1.05;1.02;;;3.40;99.90;;;;;;5093976;28;20085;-69
2021/12/20 04:05:10;;;;;;;0.95;0.95;;;3.50;99.90;;;;;;5076420;28;20020;-67
2021/12/20 04:07:36;;;;;;;0.73;0.73;;;3.50;99.90;;;;;;5093712;28;20097;-67
2021/12/20 04:10:04;;;;;;;1.38;1.27;;;3.50;99.90;;;;;;5092356;28;20032;-67
2021/12/20 04:12:30;;;;;;;0.40;0.40;;;3.50;99.90;;;;;;5093660;28;20036;-68
2021/12/20 04:14:55;;;;;;;0.88;0.80;;;3.40;99.90;;;;;;5093705;28;20119;-68
2021/12/20 04:17:21;;;;;;;1.25;1.25;;;3.40;99.90;;;;;;5093614;28;20381;-68
2021/12/20 04:19:47;;;;;;;5.45;1.88;;;3.40;99.90;;;;;;5092134;28;20056;-67
2021/12/20 04:22:15;;;;;;;5.78;2.05;;;3.40;99.90;;;;;;5093773;28;20444;-68
2021/12/20 04:24:42;;;;;;;0.25;0.25;;;3.40;99.90;;;;;;5093446;28;20059;-68
2021/12/20 04:27:08;;;;;;;0.77;0.45;;;3.40;99.90;;;;;;5093456;28;20054;-67
2021/12/20 04:29:33;;;;;;;0.68;0.68;;;3.40;99.90;;;;;;5092226;28;20032;-68
2021/12/20 04:31:59;;;;;;;0.43;0.43;;;3.40;99.90;;;;;;5093529;28;20040;-67
2021/12/20 04:34:25;;;;;;;0.20;0.20;;;3.40;99.90;;;;;;5093211;28;20043;-67
2021/12/20 04:36:51;;;;;;;8.50;3.50;;;3.40;99.90;;;;;;5091770;28;20043;-68
2021/12/20 04:39:21;;;;;;;0.25;0.25;;;3.40;99.90;;;;;;5092184;28;20027;-67
2021/12/20 04:41:52;;;;;;;0.73;0.73;;;3.30;99.90;;;;;;5092783;28;20480;-68
2021/12/20 04:44:18;;;;;;;0.88;0.88;;;3.40;99.90;;;;;;5064220;28;20033;-68
2021/12/20 04:46:44;;;;;;;3.50;1.20;;;3.40;99.90;;;;;;5070943;28;20045;-64
2021/12/20 04:49:10;;;;;;;5.18;1.65;;;3.40;99.90;;;;;;5072555;28;20169;-65
2021/12/20 04:51:36;;;;;;;1.80;1.65;;;3.40;99.90;;;;;;5070985;28;20032;-64
2021/12/20 04:54:02;;;;;;;1.08;0.60;;;3.40;99.90;;;;;;5053595;28;20068;-65
2021/12/20 04:56:28;;;;;;;0.75;0.75;;;3.40;99.90;;;;;;5051184;28;20033;-63
2021/12/20 04:58:54;;;;;;;1.30;1.20;;;3.30;99.90;;;;;;5051424;28;20044;-65
2021/12/20 05:01:19;;;;;;;0.35;0.35;;;3.40;99.90;;;;;;5052328;28;20043;-65
2021/12/20 05:03:45;;;;;;;0.40;0.40;;;3.40;99.90;;;;;;5050992;28;20107;-65
2021/12/20 05:06:11;;;;;;;4.38;1.42;;;3.40;99.90;;;;;;5052414;28;20021;-65
2021/12/20 05:08:46;;;;;;;0.73;0.73;;;3.40;99.90;;;;;;5052134;28;20090;-65
2021/12/20 05:11:13;;;;;;;1.08;0.85;;;3.40;99.90;;;;;;5052237;28;20029;-66
2021/12/20 05:13:39;;;;;;;0.15;0.15;;;3.40;99.90;;;;;;5064136;28;20032;-67
2021/12/20 05:16:05;;;;;;;1.98;1.55;;;3.60;99.90;;;;;;5071946;28;20033;-67
2021/12/20 05:18:31;;;;;;;0.30;0.30;;;3.70;99.90;;;;;;5072049;28;20362;-67
2021/12/20 05:20:57;;;;;;;0.22;0.22;;;3.80;99.90;;;;;;5070725;28;20477;-66
2021/12/20 05:23:26;;;;;;;1.60;1.52;;;3.70;99.90;;;;;;5072412;28;20024;-66
2021/12/20 05:25:52;;;;;;;0.75;0.75;;;3.60;99.90;;;;;;5070821;28;20389;-63
2021/12/20 05:28:18;;;;;;;1.70;1.60;;;3.80;99.90;;;;;;5072080;28;20047;-67
2021/12/20 05:30:48;;;;;;;0.10;0.10;;;3.70;99.90;;;;;;5053893;28;20032;-65
2021/12/20 05:33:14;;;;;;;1.00;1.00;;;3.60;99.90;;;;;;5070697;28;20036;-66
2021/12/20 05:35:40;;;;;;;3.13;2.08;;;3.60;99.90;;;;;;5072193;28;20032;-64
2021/12/20 05:38:06;;;;;;;0.13;0.13;;;3.60;99.90;;;;;;5070460;28;20044;-65
2021/12/20 05:40:32;;;;;;;4.47;1.88;;;3.50;99.90;;;;;;5070619;28;20445;-66
2021/12/20 05:42:57;;;;;;;1.27;0.98;;;3.50;99.90;;;;;;5071718;28;20027;-65
2021/12/20 05:45:23;;;;;;;0.43;0.43;;;3.50;99.90;;;;;;5071550;28;20107;-66
2021/12/20 05:47:50;;;;;;;3.10;0.75;;;3.50;99.90;;;;;;5071571;28;20047;-64
2021/12/20 05:50:20;;;;;;;0.20;0.20;;;3.40;99.90;;;;;;5070748;28;20056;-64
2021/12/20 05:52:46;;;;;;;0.17;0.17;;;3.40;99.90;;;;;;5054417;28;20093;-65
2021/12/20 05:55:15;;;;;;;15.80;1.30;;;3.40;99.90;;;;;;5070041;28;20044;-65
2021/12/20 05:57:41;;;;;;;3.15;2.92;;;3.40;99.90;;;;;;5068836;28;20032;-65
2021/12/20 06:00:12;;;;;;;0.65;0.65;;;3.30;99.90;;;;;;5065786;28;20111;-64
2021/12/20 06:02:39;;;;;;;;;;;3.40;99.90;;;;;;5058402;28;20060;-65
2021/12/20 06:05:06;;;;;;;1.98;1.88;;;3.40;99.90;;;;;;5059378;28;19967;-65
2021/12/20 06:07:31;;;;;;;0.30;0.30;;;3.40;99.90;;;;;;5061389;28;20197;-65
2021/12/20 06:09:57;;;;;;;0.95;0.95;;;3.40;99.90;;;;;;5065292;28;20132;-65
2021/12/20 06:12:23;;;;;;;0.65;0.63;;;3.40;99.90;;;;;;5059368;28;20116;-65
2021/12/20 06:14:49;;;;;;;0.10;0.10;;;3.40;99.90;;;;;;5062609;28;20060;-65
2021/12/20 06:17:15;;;;;;;0.28;0.28;;;3.50;99.90;;;;;;5052411;28;20033;-64
2021/12/20 06:19:40;;;;;;;1.27;1.20;;;3.50;99.90;;;;;;5068138;28;20484;-65
2021/12/20 06:22:07;;;;;;;1.55;1.45;;;3.50;99.90;;;;;;5061566;28;20509;-65
2021/12/20 06:24:34;;;;;;;4.43;3.45;;;3.50;99.90;;;;;;5071616;28;20056;-65
2021/12/20 06:26:59;;;;;;;1.30;1.20;;;3.50;99.90;;;;;;5069111;28;20111;-65
2021/12/20 06:29:26;;;;;;;0.45;0.45;;;3.50;99.90;;;;;;5071067;28;20529;-65
2021/12/20 06:31:52;;;;;;;0.80;0.80;;;3.50;99.90;;;;;;5071020;28;20071;-64
2021/12/20 06:34:18;;;;;;;1.02;0.95;;;3.50;99.90;;;;;;5070120;28;20029;-63
2021/12/20 06:36:44;;;;;;;1.60;1.50;;;3.50;99.90;;;;;;5071307;28;20029;-63
2021/12/20 06:39:09;;;;;;;0.45;0.45;;;3.50;99.90;;;;;;5063243;28;20037;-63
2021/12/20 06:41:37;;;;;;;0.10;0.10;;;3.50;99.90;;;;;;5049917;28;20112;-64
2021/12/20 06:44:04;;;;;;;0.63;0.63;;;3.50;99.90;;;;;;5049725;28;20032;-63
2021/12/20 06:46:33;;;;;;;0.20;0.20;;;3.50;99.90;;;;;;5033105;28;20045;-63
2021/12/20 06:48:59;;;;;;;2.85;2.67;;;3.50;99.90;;;;;;5066447;28;20073;-63
2021/12/20 06:51:25;;;;;;;0.30;0.30;;;3.50;99.90;;;;;;5051183;28;20041;-64
2021/12/20 06:53:51;;;;;;;5.00;1.23;;;3.50;99.90;;;;;;5049586;28;20065;-63
2021/12/20 06:56:23;;;;;;;1.33;0.73;;;3.50;99.90;;;;;;5063776;28;20574;-62
2021/12/20 06:58:53;;;;;;;0.10;0.10;;;3.40;99.90;;;;;;5059481;28;20486;-63
2021/12/20 07:01:20;;;;;;;1.50;1.42;;;3.40;99.90;;;;;;5055934;28;20033;-63
2021/12/20 07:03:46;;;;;;;0.98;0.98;;;3.40;99.90;;;;;;5056317;28;20036;-63
2021/12/20 07:06:12;;;;;;;0.93;0.93;;;3.40;99.90;;;;;;5060375;28;20036;-63
2021/12/20 07:08:38;;;;;;;0.52;0.52;;;3.40;99.90;;;;;;5059058;28;20044;-63
2021/12/20 07:11:05;;;;;;;0.85;0.85;;;3.50;99.90;;;;;;5066536;28;20037;-62
2021/12/20 07:13:31;;;;;;;0.65;0.65;;;3.50;99.90;;;;;;5053050;28;20033;-63
2021/12/20 07:15:57;;;;;;;2.83;2.05;;;3.50;99.90;;;;;;5053991;28;20037;-62
2021/12/20 07:18:23;;;;;;;0.13;0.13;;;3.60;99.90;;;;;;5053010;28;20032;-63
2021/12/20 07:20:49;;;;;;;0.50;0.50;;;3.70;99.90;;;;;;5053171;28;20033;-62
2021/12/20 07:23:15;;;;;;;5.15;3.08;;;3.70;99.90;;;;;;5054041;28;20394;-62
2021/12/20 07:25:41;;;;;;;0.20;0.20;;;3.60;99.90;;;;;;5054270;28;20068;-63
2021/12/20 07:28:07;;;;;;;15.45;1.58;;;3.60;99.90;;;;;;5053735;28;20033;-63
2021/12/20 07:30:34;;;;;;;0.20;0.20;;;3.60;99.90;;;;;;5054435;28;20037;-63
2021/12/20 07:32:59;;;;;;;1.00;1.00;;;3.70;99.90;;;;;;5052312;28;20037;-63
2021/12/20 07:35:26;;;;;;;0.10;0.10;;;3.70;99.90;;;;;;5054030;28;20021;-64
2021/12/20 07:37:55;;;;;;;1.92;0.85;;;3.60;99.90;;;;;;5053746;28;20032;-64
2021/12/20 07:40:23;;;;;;;0.30;0.30;;;3.60;99.90;;;;;;5054032;28;20033;-64
2021/12/20 07:42:49;;;;;;;1.48;0.50;;;3.60;99.90;;;;;;5053834;28;20355;-64
2021/12/20 07:45:15;;;;;;;0.20;0.20;;;3.60;99.90;;;;;;5053765;28;20055;-64
2021/12/20 07:47:41;;;;;;;0.93;0.90;;;3.60;99.90;;;;;;5053849;28;20033;-65
2021/12/20 07:50:08;;;;;;;2.50;2.30;;;3.60;99.90;;;;;;5053710;28;20032;-74
2021/12/20 07:52:33;;;;;;;0.30;0.30;;;3.70;99.90;;;;;;5053690;28;20029;-72
2021/12/20 07:55:03;;;;;;;2.13;1.60;;;3.80;99.90;;;;;;5053407;28;20476;-73
2021/12/20 07:57:29;;;;;;;1.77;1.67;;;3.80;99.90;;;;;;5068772;28;20033;-73
2021/12/20 07:59:55;;;;;;;3.20;1.90;;;3.60;99.90;;;;;;5052466;28;20393;-73
2021/12/20 08:02:20;;;;;;;0.10;0.10;;;3.70;99.90;;;;;;5053677;28;20597;-73
2021/12/20 08:04:50;;;;;;;0.50;0.50;;;3.60;99.90;;;;;;5053410;28;20044;-73
2021/12/20 08:07:18;;;;;;;0.35;0.35;;;3.60;99.90;;;;;;5053632;28;20123;-73
2021/12/20 08:09:44;;;;;;;0.63;0.63;;;3.70;99.90;;;;;;5053198;28;20041;-74
2021/12/20 08:12:10;;;;;;;1.40;1.30;;;3.80;99.90;;;;;;5053288;28;20033;-72
2021/12/20 08:14:36;;;;;;;0.38;0.38;;;3.90;99.90;;;;;;5053245;28;20025;-67
2021/12/20 08:17:02;;;;;;;0.10;0.10;;;3.90;99.90;;;;;;5052640;28;20075;-65
2021/12/20 08:19:28;;;;;;;0.75;0.75;;;4.00;99.90;;;;;;5053566;28;20029;-67
2021/12/20 08:21:54;;;;;;;8.93;1.80;;;4.10;99.90;;;;;;5053342;28;20141;-67
2021/12/20 08:24:19;;;;;;;0.10;0.10;;;4.00;99.90;;;;;;5053252;28;20428;-67
2021/12/20 08:26:47;;;;;;;0.10;0.10;;;4.10;99.90;;;;;;5052822;28;20063;-67
2021/12/20 08:29:13;;;;;;;1.38;0.82;;;4.10;99.90;;;;;;5052411;28;20102;-67
2021/12/20 08:31:39;;;;;;;1.00;1.00;;;4.10;99.90;;;;;;5052865;28;20033;-66
2021/12/20 08:34:06;;;;;;;4.47;3.03;;;4.10;99.90;;;;;;5052623;28;20490;-66
2021/12/20 08:36:32;;;;;;;0.65;0.65;;;4.10;99.90;;;;;;5052654;28;20033;-66
2021/12/20 08:38:58;;;;;;;4.85;2.63;;;4.10;99.90;;;;;;5052662;28;20118;-66
2021/12/20 08:41:24;;;;;;;0.22;0.22;;;4.10;99.90;;;;;;5052798;28;20060;-66
2021/12/20 08:43:50;;;;;;;0.10;0.10;;;4.10;99.90;;;;;;5052981;28;20037;-66
2021/12/20 08:46:16;;;;;;;0.30;0.30;;;4.20;99.90;;;;;;5052392;28;20049;-66
2021/12/20 08:48:46;;;;;;;8.15;2.85;;;4.20;99.90;;;;;;5052155;28;20036;-67
2021/12/20 08:51:13;;;;;;;0.98;0.90;;;4.10;99.90;;;;;;5058294;28;20028;-66
2021/12/20 08:53:40;;;;;;;1.10;1.10;;;4.10;99.90;;;;;;5072546;28;20086;-66
2021/12/20 08:56:07;;;;;;;0.77;0.77;;;4.20;99.90;;;;;;5072564;28;20377;-65
2021/12/20 08:58:33;;;;;;;0.30;0.30;;;4.20;99.90;;;;;;5072174;28;20595;-66
2021/12/20 09:00:59;;;;;;;0.22;0.22;;;4.20;99.90;;;;;;5072103;28;20397;-66
2021/12/20 09:03:27;;;;;;;0.30;0.30;;;4.20;99.90;;;;;;5072547;28;20033;-66
2021/12/20 09:05:53;;;;;;;1.30;1.20;;;4.10;99.90;;;;;;5072177;28;20028;-66
2021/12/20 09:08:20;;;;;;;5.35;2.60;;;4.20;99.90;;;;;;5071836;28;20471;-66
2021/12/20 09:10:47;;;;;;;0.63;0.55;;;4.20;99.90;;;;;;5072137;28;20025;-66
2021/12/20 09:13:13;;;;;;;0.98;0.65;;;4.30;99.90;;;;;;5071923;28;20072;-66
2021/12/20 09:15:39;;;;;;;0.38;0.38;;;4.40;99.90;;;;;;5072058;28;20044;-66
2021/12/20 09:18:07;;;;;;;1.65;1.55;;;4.40;99.90;;;;;;5072027;28;20033;-66
2021/12/20 09:20:36;;;;;;;2.15;1.05;;;4.40;99.90;;;;;;5072218;28;20025;-65
2021/12/20 09:23:07;;;;;;;0.22;0.22;;;4.50;99.90;;;;;;5070421;28;20685;-66
2021/12/20 09:25:38;;;;;;;0.20;0.20;;;4.60;99.90;;;;;;5072294;28;20461;-66
2021/12/20 09:28:10;;;;;;;4.05;1.75;;;4.70;99.90;;;;;;5087146;28;20837;-67
2021/12/20 09:30:40;;;;;;;0.20;0.20;;;4.70;99.90;;;;;;5071313;28;20428;-66
2021/12/20 09:33:06;;;;;;;2.15;2.05;;;4.80;99.90;;;;;;5071856;28;20060;-66
2021/12/20 09:35:33;;;;;;;4.45;1.08;;;4.90;99.90;;;;;;5071897;28;20079;-66
2021/12/20 09:38:06;;;;;;;2.75;2.58;;;4.90;99.90;;;;;;5071788;28;20140;-66
2021/12/20 09:41:01;;;;;;;0.65;0.65;;;5.10;99.90;;;;;;5072071;28;20044;-66
2021/12/20 09:43:26;;;;;;;0.35;0.35;;;5.10;99.90;;;;;;5070366;28;20029;-66
2021/12/20 09:45:53;;;;;;;5.78;2.72;;;5.20;99.90;;;;;;5070270;28;20041;-66
2021/12/20 09:48:19;;;;;;;3.95;2.40;;;5.20;99.90;;;;;;5070171;28;20443;-67
2021/12/20 09:50:47;;;;;;;1.75;1.08;;;5.30;99.90;;;;;;5071722;28;20151;-67
2021/12/20 09:53:14;;;;;;;1.58;1.17;;;5.60;99.90;;;;;;5071727;28;20035;-67
2021/12/20 09:55:46;;;;;;;0.68;0.40;;;6.20;99.90;;;;;;5071558;28;20059;-66
2021/12/20 09:58:12;;;;;;;0.35;0.35;;;7.00;99.90;;;;;;5070135;28;20435;-67
2021/12/20 10:00:39;;;;;;;0.30;0.30;;;7.20;99.90;;;;;;5071684;28;20024;-66
2021/12/20 10:03:05;;;;;;;1.42;1.23;;;7.10;99.90;;;;;;5070400;28;20036;-67
2021/12/20 10:05:34;;;;;;;0.93;0.93;;;8.20;99.90;;;;;;5070173;28;20050;-66
2021/12/20 10:08:09;;;;;;;1.00;0.98;;;9.10;99.90;;;;;;5071025;28;20413;-66
2021/12/20 10:10:48;;;;;;;0.22;0.22;;;7.90;99.90;;;;;;5071678;28;20112;-66
2021/12/20 10:13:43;;;;;;;0.75;0.75;;;8.40;99.90;;;;;;5063935;28;20091;-66
2021/12/20 10:16:20;;;;;;;0.70;0.70;;;10.10;99.90;;;;;;5052119;28;20051;-67
2021/12/20 10:18:47;;;;;;;0.82;0.75;;;10.00;99.90;;;;;;5058629;28;20616;-68
2021/12/20 10:21:14;;;;;;;1.08;1.05;;;10.90;99.90;;;;;;5056578;28;20478;-67
2021/12/20 10:23:47;;;;;;;0.60;0.60;;;10.90;99.90;;;;;;5059881;28;20032;-67
2021/12/20 10:26:21;;;;;;;0.75;0.73;;;10.60;99.90;;;;;;5059279;28;20095;-68
2021/12/20 10:28:52;;;;;;;1.63;1.48;;;11.10;99.90;;;;;;5058957;28;20048;-68
2021/12/20 10:31:23;;;;;;;2.22;1.33;;;11.50;99.90;;;;;;5059346;28;20024;-66
2021/12/20 10:34:04;;;;;;;0.88;0.88;;;11.30;99.90;;;;;;5060923;28;20029;-67
2021/12/20 10:36:32;;;;;;;0.15;0.15;;;11.50;99.90;;;;;;5061636;28;20033;-67
2021/12/20 10:39:00;;;;;;;0.30;0.30;;;10.30;99.90;;;;;;5059889;28;20048;-67
2021/12/20 10:41:39;;;;;;;0.65;0.38;;;10.60;99.90;;;;;;5061194;28;20046;-67
2021/12/20 10:44:17;;;;;;;0.03;0.03;;;11.30;99.90;;;;;;5072826;28;20036;-67
2021/12/20 10:46:53;;;;;;;0.00;0.00;;;9.90;99.90;;;;;;5054991;28;20131;-66
2021/12/20 10:49:25;;;;;;;0.73;0.65;;;9.70;99.90;;;;;;5068864;28;20527;-67
2021/12/20 10:51:52;;;;;;;0.38;0.38;;;10.60;99.90;;;;;;5073869;28;20032;-68
2021/12/20 10:54:23;;;;;;;1.27;1.08;;;10.80;99.90;;;;;;5075031;28;20039;-68
2021/12/20 10:57:02;;;;;;;0.43;0.43;;;11.40;99.90;;;;;;5073864;28;20032;-67
2021/12/20 10:59:35;;;;;;;0.00;0.00;;;12.50;99.90;;;;;;5073296;28;20051;-68
2021/12/20 11:05:01;;;;;;;0.08;0.08;;;11.10;99.90;;;;;;5073639;28;20028;-66
2021/12/20 11:10:07;;;;;;;1.20;1.10;;;13.00;99.90;;;;;;5074719;28;20052;-68
2021/12/20 11:12:34;;;;;;;0.73;0.73;;;13.90;95.10;;;;;;5074796;28;20025;-66
2021/12/20 11:15:13;;;;;;;0.10;0.10;;;12.70;94.40;;;;;;5074313;28;20066;-68
2021/12/20 11:17:45;;;;;;;0.30;0.30;;;12.20;99.90;;;;;;5073379;28;20033;-68
2021/12/20 11:20:19;;;;;;;3.28;0.63;;;13.60;96.40;;;;;;5074125;28;20028;-68
2021/12/20 11:22:44;;;;;;;0.00;0.00;;;14.80;94.40;;;;;;5074298;28;20497;-68
2021/12/20 11:25:15;;;;;;;0.40;0.28;;;15.20;91.70;;;;;;5072808;28;20043;-67
2021/12/20 11:27:51;;;;;;;0.15;0.15;;;13.30;92.00;;;;;;5073836;28;20032;-66
2021/12/20 11:30:22;;;;;;;0.00;0.00;;;13.40;95.00;;;;;;5073031;28;20033;-65
2021/12/20 11:32:49;;;;;;;0.30;0.20;;;12.50;95.60;;;;;;5072914;28;20032;-65
2021/12/20 11:35:19;;;;;;;0.10;0.10;;;13.00;95.00;;;;;;5074081;28;20116;-66
2021/12/20 11:37:45;;;;;;;0.00;0.00;;;14.50;92.90;;;;;;5074029;28;20484;-66
2021/12/20 11:40:15;;;;;;;0.32;0.20;;;14.40;90.50;;;;;;5072338;28;20044;-71
2021/12/20 11:42:41;;;;;;;0.65;0.52;;;15.20;89.90;;;;;;5072619;28;20606;-65
2021/12/20 11:45:10;;;;;;;0.00;0.00;;;15.80;86.00;;;;;;5073857;28;20389;-68
2021/12/20 11:48:08;;;;;;;0.00;0.00;;;15.70;83.30;;;;;;5072539;28;20036;-65
2021/12/20 11:50:39;;;;;;;0.70;0.70;;;13.70;83.80;;;;;;5071821;28;20040;-66
2021/12/20 11:53:17;;;;;;;0.22;0.22;;;11.50;94.90;;;;;;5072503;28;20041;-67
2021/12/20 11:55:54;;;;;;;0.00;0.00;;;10.80;95.80;;;;;;5073832;28;20385;-70
2021/12/20 11:58:25;;;;;;;0.00;0.00;;;11.30;98.00;;;;;;5072475;28;20043;-66
2021/12/20 12:01:03;;;;;;;0.00;0.00;;;12.70;95.20;;;;;;5072396;28;20116;-68
2021/12/20 12:03:35;;;;;;;0.00;0.00;;;12.00;92.80;;;;;;5072513;28;20153;-68
2021/12/20 12:06:05;;;;;;;0.00;0.00;;;10.80;97.00;;;;;;5073514;28;20037;-70
2021/12/20 12:08:39;;;;;;;0.22;0.22;;;12.00;94.80;;;;;;5073247;28;20126;-68
2021/12/20 12:11:04;;;;;;;0.10;0.10;;;13.00;91.90;;;;;;5073298;28;20115;-67
2021/12/20 12:14:07;;;;;;;0.68;0.65;;;14.10;90.70;;;;;;5072064;28;20111;-67
2021/12/20 12:17:09;;;;;;;3.00;0.70;;;13.90;89.80;;;;;;5073254;28;20556;-67
2021/12/20 12:19:55;;;;;;;0.00;0.00;;;13.20;91.90;;;;;;5073363;28;20048;-68
2021/12/20 12:22:26;;;;;;;0.00;0.00;;;13.90;90.30;;;;;;5072503;28;20037;-67
2021/12/20 12:24:56;;;;;;;1.17;0.85;;;12.30;91.40;;;;;;5073143;28;20037;-67
2021/12/20 12:27:34;;;;;;;0.00;0.00;;;12.40;93.60;;;;;;5071550;28;20081;-67
2021/12/20 12:30:28;;;;;;;0.00;0.00;;;12.90;91.20;;;;;;5071518;28;20040;-68
2021/12/20 12:32:56;;;;;;;0.00;0.00;;;13.70;90.20;;;;;;5067527;28;20119;-67
2021/12/20 12:35:51;;;;;;;0.90;0.68;;;13.50;91.30;;;;;;5072902;28;20029;-67
2021/12/20 12:38:26;;;;;;;0.63;0.63;;;13.40;91.00;;;;;;5065566;28;20033;-69
2021/12/20 12:41:32;;;;;;;1.48;1.23;;;13.80;90.40;;;;;;5072225;28;20366;-68
2021/12/20 12:44:17;;;;;;;0.00;0.00;;;15.00;86.70;;;;;;5071702;28;20032;-63
2021/12/20 12:46:54;;;;;;;1.15;0.73;;;14.50;85.80;;;;;;5060820;28;20049;-67
2021/12/20 12:49:22;;;;;;;12.45;2.00;;;12.80;91.50;;;;;;5034776;28;20048;-69
2021/12/20 12:51:59;;;;;;;0.47;0.47;;;11.90;91.90;;;;;;5052718;28;20036;-69
2021/12/20 12:54:41;;;;;;;0.43;0.20;;;11.80;92.60;;;;;;5051309;28;20549;-69
2021/12/20 12:57:09;;;;;;;0.32;0.32;;;11.40;92.40;;;;;;5052308;28;20037;-69
2021/12/20 12:59:56;;;;;;;1.08;1.08;;;9.80;96.50;;;;;;5051379;28;20032;-69
2021/12/20 13:02:38;;;;;;;0.13;0.13;;;9.90;97.90;;;;;;5052800;28;20091;-70
2021/12/20 13:05:07;;;;;;;8.40;1.85;;;10.10;97.50;;;;;;5051666;28;20040;-69
2021/12/20 13:07:54;;;;;;;3.83;0.98;;;10.30;97.40;;;;;;5052000;28;20087;-69
2021/12/20 13:10:37;;;;;;;0.47;0.47;;;10.00;97.80;;;;;;5034258;28;20043;-67
2021/12/20 13:13:41;;;;;;;0.00;0.00;;;10.50;96.90;;;;;;5035754;28;20040;-67
2021/12/20 13:16:04;;;;;;;0.10;0.10;;;11.30;95.00;;;;;;5051436;28;20470;-68
2021/12/20 13:18:36;;;;;;;0.00;0.00;;;11.60;93.20;;;;;;5050134;28;20665;-68
2021/12/20 13:21:06;;;;;;;0.00;0.00;;;12.50;92.40;;;;;;5052151;28;20059;-69
2021/12/20 13:23:33;;;;;;;1.25;0.70;;;12.70;92.30;;;;;;5052187;28;20117;-70
2021/12/20 13:26:13;;;;;;;2.38;1.27;;;11.40;92.50;;;;;;5052029;28;20064;-70
2021/12/20 13:28:43;;;;;;;0.10;0.10;;;12.10;93.20;;;;;;5050956;28;20029;-70